Time;durP1;ratioP1;P1;durP2;ratioP2;P2;SDS_P1;SDS_P2;PMS_P1;PMS_P2;Temp;Humidity;BMP_temperature;BMP_pressure;BME280_temperature;BME280_humidity;BME280_pressure;Samples;Min_cycle;Max_cycle;Signal;HPM_P1;HPM_P2
2023/03/24 00:02:19;;;;;;;6.43;4.72;;;18.90;63.90;;;;;;5053663;28;20036;-24
2023/03/24 00:04:51;;;;;;;6.47;4.32;;;18.90;63.90;;;;;;5053713;28;20021;-24
2023/03/24 00:07:18;;;;;;;7.47;4.43;;;18.90;63.90;;;;;;5053160;28;20056;-24
2023/03/24 00:09:46;;;;;;;5.90;4.60;;;18.90;63.90;;;;;;5053311;28;20025;-23
2023/03/24 00:12:13;;;;;;;5.50;4.38;;;18.90;63.90;;;;;;5052592;28;20029;-22
2023/03/24 00:14:39;;;;;;;7.32;4.40;;;18.90;63.90;;;;;;5053222;28;20028;-22
2023/03/24 00:17:13;;;;;;;6.30;4.50;;;18.90;63.90;;;;;;5053396;28;20044;-23
2023/03/24 00:19:39;;;;;;;;;;;18.80;63.90;;;;;;5053913;28;20029;-23
2023/03/24 00:22:13;;;;;;;6.35;4.40;;;18.80;63.80;;;;;;5053027;28;19920;-23
2023/03/24 00:24:40;;;;;;;8.35;4.90;;;18.80;63.90;;;;;;5053081;28;20032;-23
2023/03/24 00:27:06;;;;;;;6.07;4.43;;;18.80;63.90;;;;;;5053183;28;20033;-23
2023/03/24 00:29:32;;;;;;;7.90;4.63;;;18.90;63.90;;;;;;5053093;28;20024;-23
2023/03/24 00:31:58;;;;;;;6.72;4.60;;;18.80;63.80;;;;;;5052768;28;20032;-23
2023/03/24 00:34:24;;;;;;;6.15;4.50;;;18.80;63.80;;;;;;5052982;28;20025;-23
2023/03/24 00:36:51;;;;;;;7.57;5.00;;;18.80;63.80;;;;;;5053105;28;20037;-23
2023/03/24 00:39:18;;;;;;;6.75;4.78;;;18.80;63.80;;;;;;5053237;28;20025;-24
2023/03/24 00:41:46;;;;;;;5.97;4.30;;;18.80;63.80;;;;;;5052733;28;20492;-24
2023/03/24 00:44:16;;;;;;;5.95;4.57;;;18.70;63.80;;;;;;5052855;28;20048;-23
2023/03/24 00:46:54;;;;;;;7.88;5.00;;;18.80;63.80;;;;;;5053266;28;20025;-25
2023/03/24 00:49:41;;;;;;;5.90;4.32;;;18.80;63.80;;;;;;5053155;28;20029;-23
2023/03/24 00:52:19;;;;;;;7.10;4.93;;;18.70;63.80;;;;;;5052606;28;20396;-23
2023/03/24 00:54:53;;;;;;;7.70;4.95;;;18.80;63.90;;;;;;5052953;28;20025;-23
2023/03/24 00:57:24;;;;;;;6.63;4.78;;;18.80;63.90;;;;;;5053084;28;20033;-23
2023/03/24 00:59:53;;;;;;;6.05;4.65;;;18.80;63.90;;;;;;5052880;28;20044;-22
2023/03/24 01:02:24;;;;;;;6.47;4.80;;;18.70;63.90;;;;;;5053212;28;20057;-22
2023/03/24 01:04:55;;;;;;;7.55;5.25;;;18.70;63.90;;;;;;5052718;28;20444;-21
2023/03/24 01:07:21;;;;;;;7.82;5.00;;;18.80;63.90;;;;;;5052548;28;20052;-23
2023/03/24 01:09:56;;;;;;;8.25;5.15;;;18.70;63.90;;;;;;5052713;28;20029;-23
2023/03/24 01:12:35;;;;;;;8.52;5.68;;;18.70;63.90;;;;;;5052619;28;20396;-24
2023/03/24 01:15:06;;;;;;;6.88;5.15;;;18.70;63.90;;;;;;5052655;28;20021;-24
2023/03/24 01:17:33;;;;;;;8.48;4.97;;;18.70;63.90;;;;;;5052567;28;20029;-24
2023/03/24 01:19:59;;;;;;;8.40;4.95;;;18.70;63.90;;;;;;5052401;28;20029;-24
2023/03/24 01:22:29;;;;;;;7.72;5.25;;;18.70;63.90;;;;;;5052682;28;20269;-24
2023/03/24 01:24:56;;;;;;;7.68;5.28;;;18.70;63.90;;;;;;5056309;28;20081;-23
2023/03/24 01:27:22;;;;;;;8.68;5.75;;;18.70;63.90;;;;;;5055071;28;20029;-25
2023/03/24 01:29:48;;;;;;;8.23;5.10;;;18.70;63.90;;;;;;5056349;28;20025;-24
2023/03/24 01:32:14;;;;;;;8.20;5.63;;;18.70;63.90;;;;;;5056212;28;20028;-24
2023/03/24 01:34:40;;;;;;;7.47;5.22;;;18.60;63.90;;;;;;5056428;28;20087;-24
2023/03/24 01:37:06;;;;;;;7.65;5.00;;;18.70;63.90;;;;;;5056341;28;20060;-24
2023/03/24 01:39:32;;;;;;;9.70;5.70;;;18.70;63.90;;;;;;5056063;28;20481;-23
2023/03/24 01:41:58;;;;;;;8.18;5.55;;;18.70;63.90;;;;;;5055800;28;20036;-24
2023/03/24 01:44:27;;;;;;;8.43;5.78;;;18.60;63.90;;;;;;5056264;28;20029;-22
2023/03/24 01:46:54;;;;;;;9.27;5.55;;;18.60;63.90;;;;;;5056255;28;20032;-24
2023/03/24 01:49:21;;;;;;;8.13;5.55;;;18.60;63.90;;;;;;5056247;28;20041;-24
2023/03/24 01:51:51;;;;;;;8.48;5.95;;;18.60;64.00;;;;;;5055555;28;20083;-25
2023/03/24 01:54:21;;;;;;;6.93;5.03;;;18.60;64.00;;;;;;5056264;28;20064;-24
2023/03/24 01:56:56;;;;;;;7.25;5.40;;;18.60;64.00;;;;;;5055727;28;20373;-24
2023/03/24 01:59:27;;;;;;;8.30;5.32;;;18.60;64.00;;;;;;5055714;28;20354;-24
2023/03/24 02:02:01;;;;;;;7.03;5.03;;;18.60;64.00;;;;;;5055740;28;20063;-24
2023/03/24 02:04:33;;;;;;;9.32;5.45;;;18.60;64.00;;;;;;5055953;28;20028;-23
2023/03/24 02:07:27;;;;;;;7.38;5.43;;;18.60;64.00;;;;;;5055156;28;20037;-24
2023/03/24 02:09:53;;;;;;;8.90;5.80;;;18.60;64.00;;;;;;5047841;28;20029;-23
2023/03/24 02:12:19;;;;;;;8.57;5.80;;;18.60;64.00;;;;;;5055482;28;20107;-24
2023/03/24 02:14:45;;;;;;;8.00;5.32;;;18.60;64.00;;;;;;5055390;28;20057;-23
2023/03/24 02:20:51;;;;;;;7.13;4.95;;;18.60;64.10;;;;;;5055616;28;20028;-24
2023/03/24 02:23:29;;;;;;;7.63;5.35;;;18.50;64.00;;;;;;5055108;28;20439;-24
2023/03/24 02:26:13;;;;;;;8.70;5.50;;;18.50;64.00;;;;;;5055106;28;20481;-23
2023/03/24 02:29:05;;;;;;;6.80;5.07;;;18.50;64.00;;;;;;5055750;28;20052;-23
2023/03/24 02:32:12;;;;;;;8.43;5.70;;;18.50;64.00;;;;;;5055157;28;20384;-24
2023/03/24 02:34:56;;;;;;;8.18;5.10;;;18.50;64.00;;;;;;5012580;28;20497;-23
2023/03/24 02:37:31;;;;;;;7.40;5.10;;;18.50;64.10;;;;;;4996890;28;20109;-25
2023/03/24 02:40:22;;;;;;;7.85;5.47;;;18.50;64.10;;;;;;5040458;28;20060;-24
2023/03/24 02:43:26;;;;;;;9.00;5.18;;;18.50;64.10;;;;;;5036444;28;20045;-24
2023/03/24 02:45:51;;;;;;;9.20;5.72;;;18.50;64.10;;;;;;5054538;28;20033;-24
2023/03/24 02:48:43;;;;;;;7.97;5.45;;;18.50;64.10;;;;;;5054820;28;20040;-23
2023/03/24 02:51:15;;;;;;;8.02;5.55;;;18.40;64.10;;;;;;5054758;28;20021;-23
2023/03/24 02:53:52;;;;;;;8.02;5.78;;;18.50;64.10;;;;;;5054627;28;20021;-24
2023/03/24 02:56:28;;;;;;;7.68;5.30;;;18.50;64.10;;;;;;5055155;28;20021;-24
2023/03/24 02:59:01;;;;;;;7.90;5.47;;;18.50;64.20;;;;;;5054719;28;20041;-24
2023/03/24 03:01:52;;;;;;;8.40;5.40;;;18.50;64.10;;;;;;5054644;28;20434;-24
2023/03/24 03:04:38;;;;;;;7.80;5.78;;;18.40;64.20;;;;;;5054652;28;20135;-24
2023/03/24 03:07:11;;;;;;;8.00;5.68;;;18.40;64.20;;;;;;5054790;28;20091;-23
2023/03/24 03:09:43;;;;;;;8.95;5.65;;;18.40;64.20;;;;;;5054395;28;20034;-23
2023/03/24 03:12:11;;;;;;;8.07;5.53;;;18.40;64.20;;;;;;5054340;28;20028;-24
2023/03/24 03:14:59;;;;;;;8.30;5.72;;;18.40;64.20;;;;;;5054286;28;20067;-24
2023/03/24 03:17:32;;;;;;;7.90;5.40;;;18.40;64.20;;;;;;5054292;28;20025;-24
2023/03/24 03:20:12;;;;;;;8.52;5.75;;;18.40;64.30;;;;;;5053912;28;20117;-24
2023/03/24 03:22:59;;;;;;;6.90;5.22;;;18.40;64.30;;;;;;5054353;28;20036;-24
2023/03/24 03:25:30;;;;;;;8.15;5.72;;;18.40;64.30;;;;;;5054129;28;20037;-24
2023/03/24 03:28:01;;;;;;;9.13;6.13;;;18.40;64.30;;;;;;5053966;28;20025;-24
2023/03/24 03:30:44;;;;;;;8.23;5.30;;;18.40;64.30;;;;;;5053977;28;20476;-24
2023/03/24 03:33:24;;;;;;;7.87;5.50;;;18.40;64.30;;;;;;5054348;28;20037;-24
2023/03/24 03:35:57;;;;;;;8.15;5.43;;;18.40;64.30;;;;;;5053665;28;20029;-24
2023/03/24 03:38:40;;;;;;;9.73;5.72;;;18.40;64.30;;;;;;5053697;28;20037;-24
2023/03/24 03:41:07;;;;;;;8.75;5.28;;;18.40;64.40;;;;;;5054161;28;20045;-25
2023/03/24 03:43:33;;;;;;;8.55;5.88;;;18.40;64.40;;;;;;5053605;28;20040;-24
2023/03/24 03:46:00;;;;;;;9.40;5.68;;;18.40;64.40;;;;;;5052528;28;20480;-24
2023/03/24 03:48:28;;;;;;;8.05;5.95;;;18.40;64.40;;;;;;5052399;28;20032;-24
2023/03/24 03:50:55;;;;;;;7.95;5.38;;;18.40;64.40;;;;;;5053922;28;20029;-24
2023/03/24 03:53:27;;;;;;;9.23;5.32;;;18.40;64.40;;;;;;5052185;28;20017;-24
2023/03/24 03:55:55;;;;;;;7.70;5.50;;;18.40;64.40;;;;;;5053453;28;20025;-24
2023/03/24 03:58:22;;;;;;;8.02;5.68;;;18.30;64.40;;;;;;5053491;28;20460;-24
2023/03/24 04:00:48;;;;;;;6.75;5.07;;;18.30;64.40;;;;;;5053660;28;20482;-25
2023/03/24 04:03:44;;;;;;;7.90;5.68;;;18.40;64.40;;;;;;5052013;28;20058;-22
2023/03/24 04:06:35;;;;;;;8.30;5.55;;;18.30;64.40;;;;;;5053711;28;20028;-23
2023/03/24 04:09:36;;;;;;;8.18;5.47;;;18.40;64.50;;;;;;5053379;28;20485;-22
2023/03/24 04:12:24;;;;;;;8.50;5.80;;;18.30;64.50;;;;;;5053054;28;20033;-23
2023/03/24 04:15:28;;;;;;;7.68;5.47;;;18.30;64.40;;;;;;5053248;28;20025;-23
2023/03/24 04:18:18;;;;;;;8.65;5.78;;;18.30;64.50;;;;;;5052988;28;20059;-23
2023/03/24 04:20:45;;;;;;;9.10;6.03;;;18.30;64.50;;;;;;5053152;28;20044;-22
2023/03/24 04:23:29;;;;;;;7.50;5.70;;;18.30;64.50;;;;;;5053228;28;20048;-24
2023/03/24 04:26:25;;;;;;;8.68;5.30;;;18.30;64.50;;;;;;5053043;28;20025;-24
2023/03/24 04:28:59;;;;;;;8.23;5.57;;;18.30;64.50;;;;;;5053098;28;20025;-23
2023/03/24 04:31:36;;;;;;;7.18;5.30;;;18.30;64.50;;;;;;5053462;28;20039;-23
2023/03/24 04:34:31;;;;;;;6.88;5.30;;;18.20;64.50;;;;;;5052886;28;20044;-24
2023/03/24 04:37:11;;;;;;;7.00;5.40;;;18.30;64.50;;;;;;5052516;28;20090;-24
2023/03/24 04:39:40;;;;;;;8.23;5.45;;;18.20;64.50;;;;;;5052955;28;20032;-24
2023/03/24 04:42:17;;;;;;;6.95;5.10;;;18.20;64.50;;;;;;5052952;28;20440;-24
2023/03/24 04:44:45;;;;;;;7.75;5.38;;;18.20;64.50;;;;;;5052957;28;20420;-23
2023/03/24 04:47:11;;;;;;;8.10;5.55;;;18.20;64.50;;;;;;5052866;28;20060;-23
2023/03/24 04:49:38;;;;;;;8.65;5.82;;;18.20;64.60;;;;;;5053165;28;20025;-24
2023/03/24 04:52:06;;;;;;;9.05;5.60;;;18.20;64.60;;;;;;5052848;28;20029;-25
2023/03/24 04:54:32;;;;;;;7.38;5.50;;;18.20;64.60;;;;;;5053106;28;20380;-24
2023/03/24 04:57:00;;;;;;;9.10;5.18;;;18.20;64.60;;;;;;5053650;28;20104;-24
2023/03/24 04:59:32;;;;;;;8.30;5.80;;;18.20;64.60;;;;;;5056846;28;20029;-24
2023/03/24 05:02:02;;;;;;;7.00;5.18;;;18.20;64.60;;;;;;5056555;28;20032;-24
2023/03/24 05:04:29;;;;;;;8.43;5.80;;;18.20;64.60;;;;;;5056771;28;20054;-23
2023/03/24 05:06:55;;;;;;;7.78;5.60;;;18.20;64.60;;;;;;5056365;28;20064;-23
2023/03/24 05:09:24;;;;;;;8.10;5.90;;;18.20;64.60;;;;;;5057170;28;20021;-25
2023/03/24 05:11:50;;;;;;;7.20;5.43;;;18.20;64.60;;;;;;5056649;28;20039;-24
2023/03/24 05:14:16;;;;;;;7.55;5.53;;;18.20;64.70;;;;;;5056825;28;20025;-24
2023/03/24 05:16:42;;;;;;;8.60;5.80;;;18.10;64.70;;;;;;5056517;28;20435;-24
2023/03/24 05:19:09;;;;;;;8.27;5.68;;;18.20;64.70;;;;;;5056731;28;20029;-24
2023/03/24 05:21:35;;;;;;;8.15;5.80;;;18.10;64.70;;;;;;5056649;28;20036;-24
2023/03/24 05:24:01;;;;;;;8.23;5.38;;;18.10;64.70;;;;;;5056153;28;20029;-25
2023/03/24 05:26:27;;;;;;;7.82;6.07;;;18.20;64.70;;;;;;5056461;28;20542;-24
2023/03/24 05:28:54;;;;;;;7.43;5.68;;;18.20;64.60;;;;;;5056318;28;20116;-24
2023/03/24 05:31:20;;;;;;;7.38;5.22;;;18.10;64.60;;;;;;5056298;28;20163;-23
2023/03/24 05:33:47;;;;;;;6.93;5.25;;;18.20;64.70;;;;;;5056145;28;20027;-24
2023/03/24 05:36:13;;;;;;;8.43;5.70;;;18.20;64.70;;;;;;5056486;28;20033;-25
2023/03/24 05:38:39;;;;;;;7.38;5.68;;;18.10;64.70;;;;;;5056039;28;20043;-23
2023/03/24 05:41:05;;;;;;;6.70;5.15;;;18.10;64.70;;;;;;5056290;28;20508;-24
2023/03/24 05:43:31;;;;;;;8.65;5.90;;;18.20;64.70;;;;;;5056264;28;20021;-24
2023/03/24 05:46:00;;;;;;;8.25;5.82;;;18.20;64.70;;;;;;5055844;28;20501;-24
2023/03/24 05:48:27;;;;;;;7.45;5.45;;;18.20;64.60;;;;;;5056121;28;20033;-24
2023/03/24 05:50:53;;;;;;;7.65;5.25;;;18.20;64.60;;;;;;5055956;28;20120;-24
2023/03/24 05:53:19;;;;;;;8.27;5.82;;;18.20;64.60;;;;;;5056020;28;20056;-23
2023/03/24 05:55:46;;;;;;;8.32;5.53;;;18.30;64.60;;;;;;5055556;28;20064;-24
2023/03/24 05:58:12;;;;;;;7.68;5.68;;;18.30;64.50;;;;;;5056066;28;20029;-24
2023/03/24 06:00:38;;;;;;;8.18;5.88;;;18.30;64.50;;;;;;5055681;28;20435;-23
2023/03/24 06:03:04;;;;;;;7.35;5.40;;;18.40;64.40;;;;;;5056035;28;20025;-24
2023/03/24 06:05:31;;;;;;;7.68;5.22;;;18.40;64.30;;;;;;5055636;28;20503;-25
2023/03/24 06:08:00;;;;;;;7.07;5.28;;;18.40;64.30;;;;;;5054673;28;20472;-24
2023/03/24 06:10:27;;;;;;;8.57;5.70;;;18.40;64.20;;;;;;5054872;28;20033;-24
2023/03/24 06:12:54;;;;;;;7.60;5.40;;;18.40;64.10;;;;;;5055806;28;20097;-24
2023/03/24 06:15:23;;;;;;;7.30;5.15;;;18.40;64.10;;;;;;5055689;28;20032;-24
2023/03/24 06:17:49;;;;;;;7.47;5.32;;;18.40;64.10;;;;;;5055444;28;20061;-24
2023/03/24 06:20:17;;;;;;;6.85;5.10;;;18.40;64.10;;;;;;5055562;28;20441;-24
2023/03/24 06:22:46;;;;;;;6.43;4.95;;;18.40;64.00;;;;;;5055637;28;20068;-23
2023/03/24 06:25:19;;;;;;;7.88;5.18;;;18.50;64.10;;;;;;5055202;28;20400;-24
2023/03/24 06:27:45;;;;;;;7.20;5.28;;;18.40;64.00;;;;;;5055041;28;20064;-24
2023/03/24 06:30:16;;;;;;;7.35;4.70;;;18.50;64.00;;;;;;5055073;28;20031;-24
2023/03/24 06:32:46;;;;;;;7.05;5.38;;;18.50;64.00;;;;;;5055222;28;20033;-24
2023/03/24 06:35:14;;;;;;;7.03;5.20;;;18.50;63.90;;;;;;5055428;28;20021;-24
2023/03/24 06:37:41;;;;;;;8.13;5.45;;;18.50;63.90;;;;;;5054923;28;20032;-24
2023/03/24 06:40:11;;;;;;;6.43;5.03;;;18.60;63.80;;;;;;5054655;28;20033;-24
2023/03/24 06:42:37;;;;;;;8.10;5.70;;;18.60;63.70;;;;;;5054889;28;20167;-24
2023/03/24 06:45:04;;;;;;;8.18;4.97;;;18.70;63.70;;;;;;5055166;28;20053;-24
2023/03/24 06:47:30;;;;;;;7.20;4.90;;;18.70;63.60;;;;;;5055035;28;20043;-24
2023/03/24 06:49:56;;;;;;;7.50;5.53;;;18.80;63.60;;;;;;5054597;28;20120;-24
2023/03/24 06:52:23;;;;;;;6.78;4.70;;;18.80;63.50;;;;;;5054880;28;20017;-24
2023/03/24 06:54:49;;;;;;;6.70;4.68;;;18.80;63.50;;;;;;5054986;28;20056;-24
2023/03/24 06:57:16;;;;;;;7.88;4.82;;;18.80;63.50;;;;;;5054730;28;20033;-24
2023/03/24 06:59:42;;;;;;;7.65;5.20;;;18.80;63.50;;;;;;5054948;28;20103;-24
2023/03/24 07:02:11;;;;;;;9.13;5.53;;;18.80;63.50;;;;;;5054423;28;20029;-24
2023/03/24 07:04:37;;;;;;;7.45;5.00;;;18.90;63.60;;;;;;5054450;28;20477;-24
2023/03/24 07:07:03;;;;;;;7.20;5.35;;;18.90;63.70;;;;;;5054057;28;20055;-24
2023/03/24 07:09:29;;;;;;;7.78;5.00;;;18.80;63.80;;;;;;5054620;28;20029;-24
2023/03/24 07:11:55;;;;;;;8.75;5.30;;;18.90;64.00;;;;;;5054366;28;20083;-23
2023/03/24 07:14:24;;;;;;;7.03;4.88;;;18.80;64.20;;;;;;5054284;28;20028;-23
2023/03/24 07:16:52;;;;;;;7.97;5.10;;;18.90;64.30;;;;;;5054428;28;20033;-24
2023/03/24 07:19:21;;;;;;;8.70;5.22;;;18.90;64.40;;;;;;5053779;28;20397;-24
2023/03/24 07:21:49;;;;;;;7.38;5.30;;;19.00;64.40;;;;;;5053665;28;20385;-24
2023/03/24 07:24:18;;;;;;;8.73;5.20;;;19.10;64.40;;;;;;5053963;28;20045;-25
2023/03/24 07:26:44;;;;;;;7.88;5.25;;;19.20;64.20;;;;;;5054322;28;20029;-24
2023/03/24 07:29:10;;;;;;;9.20;6.07;;;19.30;64.10;;;;;;5053803;28;20060;-24
2023/03/24 07:31:38;;;;;;;8.48;5.43;;;19.40;63.80;;;;;;5053846;28;20033;-24
2023/03/24 07:34:04;;;;;;;7.50;4.88;;;19.50;63.60;;;;;;5053718;28;20492;-23
2023/03/24 07:36:30;;;;;;;6.90;4.80;;;19.70;63.30;;;;;;5053844;28;20025;-25
2023/03/24 07:38:56;;;;;;;7.88;5.05;;;19.80;63.00;;;;;;5053966;28;20078;-24
2023/03/24 07:41:23;;;;;;;7.47;5.18;;;19.90;62.70;;;;;;5054175;28;20090;-24
2023/03/24 07:43:49;;;;;;;9.05;5.38;;;19.90;62.70;;;;;;5053678;28;20036;-24
2023/03/24 07:46:15;;;;;;;9.00;5.07;;;19.90;62.70;;;;;;5053922;28;20032;-24
2023/03/24 07:48:41;;;;;;;8.38;5.13;;;19.90;62.70;;;;;;5053867;28;20025;-24
2023/03/24 07:51:07;;;;;;;8.63;4.75;;;19.80;62.70;;;;;;5053810;28;20435;-24
2023/03/24 07:53:33;;;;;;;8.43;5.20;;;19.80;62.80;;;;;;5053679;28;20484;-24
2023/03/24 07:55:59;;;;;;;6.85;4.93;;;19.80;62.80;;;;;;5052044;28;20551;-23
2023/03/24 07:58:25;;;;;;;9.98;4.75;;;19.80;62.80;;;;;;5053785;28;20035;-24
2023/03/24 08:00:51;;;;;;;9.80;5.60;;;19.80;62.80;;;;;;5053327;28;20472;-24
2023/03/24 08:03:17;;;;;;;9.63;5.68;;;19.70;62.80;;;;;;5053577;28;20048;-24
2023/03/24 08:05:43;;;;;;;8.18;5.40;;;19.70;62.90;;;;;;5053409;28;20048;-25
2023/03/24 08:08:10;;;;;;;8.10;5.07;;;19.60;62.90;;;;;;5052935;28;20048;-24
2023/03/24 08:10:36;;;;;;;7.97;5.13;;;19.60;63.00;;;;;;5053353;28;20468;-24
2023/03/24 08:13:02;;;;;;;7.05;5.07;;;19.60;63.10;;;;;;5053262;28;20044;-24
2023/03/24 08:15:28;;;;;;;8.88;5.53;;;19.50;63.10;;;;;;5053285;28;20029;-24
2023/03/24 08:17:55;;;;;;;7.13;4.93;;;19.50;63.20;;;;;;5053250;28;20033;-25
2023/03/24 08:20:23;;;;;;;7.63;5.30;;;19.50;63.20;;;;;;5053133;28;20041;-24
2023/03/24 08:22:53;;;;;;;5.72;4.65;;;19.40;63.30;;;;;;5052928;28;20073;-25
2023/03/24 08:25:22;;;;;;;8.13;5.25;;;19.40;63.30;;;;;;5053349;28;20025;-24
2023/03/24 08:27:47;;;;;;;7.72;5.38;;;19.40;63.40;;;;;;5051521;28;20083;-25
2023/03/24 08:30:17;;;;;;;8.18;5.70;;;19.40;63.40;;;;;;5053314;28;20052;-25
2023/03/24 08:32:52;;;;;;;11.25;6.38;;;19.40;63.50;;;;;;5052417;28;20041;-25
2023/03/24 08:35:21;;;;;;;11.95;6.25;;;19.30;63.50;;;;;;5052932;28;20071;-25
2023/03/24 08:37:47;;;;;;;9.23;5.43;;;19.30;63.50;;;;;;5052719;28;20036;-25
2023/03/24 08:40:18;;;;;;;8.88;5.53;;;19.30;63.50;;;;;;5052881;28;20029;-24
2023/03/24 08:42:48;;;;;;;7.78;5.30;;;19.30;63.50;;;;;;5052888;28;20170;-23
2023/03/24 08:45:14;;;;;;;8.48;5.20;;;19.30;63.50;;;;;;5053490;28;20029;-24
2023/03/24 08:47:40;;;;;;;6.78;4.90;;;19.20;63.50;;;;;;5053119;28;20112;-24
2023/03/24 08:50:08;;;;;;;8.98;5.50;;;19.20;63.60;;;;;;5052635;28;20036;-24
2023/03/24 08:52:35;;;;;;;6.78;5.38;;;19.20;63.60;;;;;;5052685;28;20104;-24
2023/03/24 08:55:01;;;;;;;8.48;5.40;;;19.10;63.70;;;;;;5053119;28;20151;-25
2023/03/24 08:57:27;;;;;;;8.63;5.53;;;19.20;63.70;;;;;;5052892;28;20025;-24
2023/03/24 08:59:53;;;;;;;8.60;5.45;;;19.20;63.70;;;;;;5052611;28;20025;-24
2023/03/24 09:02:18;;;;;;;6.85;5.03;;;19.10;63.70;;;;;;5052929;28;20074;-24
2023/03/24 09:04:44;;;;;;;7.05;5.50;;;19.10;63.70;;;;;;5051433;28;20049;-25
2023/03/24 09:07:11;;;;;;;8.38;5.90;;;19.10;63.70;;;;;;5052489;28;20049;-24
2023/03/24 09:09:38;;;;;;;8.43;5.78;;;19.10;63.70;;;;;;5052939;28;20092;-24
2023/03/24 09:12:04;;;;;;;8.07;5.72;;;19.10;63.70;;;;;;5052833;28;20032;-25
2023/03/24 09:14:30;;;;;;;9.55;5.57;;;19.10;63.70;;;;;;5052959;28;20094;-24
2023/03/24 09:16:56;;;;;;;8.25;5.50;;;19.10;63.70;;;;;;5052927;28;20056;-25
2023/03/24 09:19:22;;;;;;;7.18;4.97;;;19.10;63.70;;;;;;5052519;28;20566;-24
2023/03/24 09:21:48;;;;;;;7.05;4.95;;;19.10;63.80;;;;;;5052305;28;20534;-25
2023/03/24 09:24:14;;;;;;;7.47;4.97;;;19.10;63.80;;;;;;5052375;28;20033;-24
2023/03/24 09:26:41;;;;;;;6.43;4.82;;;19.10;63.90;;;;;;5052785;28;20024;-23
2023/03/24 09:29:07;;;;;;;6.60;5.00;;;19.00;63.90;;;;;;5052674;28;20028;-24
2023/03/24 09:31:33;;;;;;;6.88;4.90;;;19.00;63.90;;;;;;5052786;28;20025;-25
2023/03/24 09:34:00;;;;;;;6.32;4.50;;;19.00;64.00;;;;;;5052275;28;20063;-23
2023/03/24 09:36:25;;;;;;;7.97;5.13;;;19.00;63.90;;;;;;5052732;28;20116;-23
2023/03/24 09:38:51;;;;;;;7.05;4.88;;;19.00;64.00;;;;;;5052618;28;20532;-23
2023/03/24 09:41:23;;;;;;;8.70;5.40;;;19.00;64.00;;;;;;5052670;28;20102;-24
2023/03/24 09:43:53;;;;;;;8.57;5.07;;;19.00;64.00;;;;;;5052958;28;20067;-24
2023/03/24 09:46:34;;;;;;;7.45;4.97;;;19.00;64.00;;;;;;5056309;28;20072;-24
2023/03/24 09:49:01;;;;;;;7.20;4.82;;;19.00;64.00;;;;;;5055953;28;20476;-23
2023/03/24 09:51:39;;;;;;;11.38;5.43;;;19.00;64.00;;;;;;5055859;28;20036;-23
2023/03/24 09:54:13;;;;;;;7.45;5.28;;;19.00;64.00;;;;;;5055566;28;20076;-23
2023/03/24 09:56:43;;;;;;;7.60;5.03;;;19.00;64.00;;;;;;5056474;28;20033;-24
2023/03/24 09:59:23;;;;;;;7.55;5.03;;;19.00;64.00;;;;;;5055718;28;20112;-24
2023/03/24 10:01:49;;;;;;;7.35;5.05;;;19.00;64.00;;;;;;5055665;28;20480;-23
2023/03/24 10:04:21;;;;;;;8.40;4.95;;;19.00;63.90;;;;;;5056099;28;20041;-24
2023/03/24 10:06:58;;;;;;;8.00;4.78;;;19.00;63.90;;;;;;5055642;28;20069;-25
2023/03/24 10:09:47;;;;;;;8.38;6.35;;;19.00;63.90;;;;;;5055696;28;20025;-23
2023/03/24 10:12:38;;;;;;;7.80;5.68;;;19.00;63.90;;;;;;5056032;28;20530;-22
2023/03/24 10:15:08;;;;;;;10.52;5.20;;;19.00;63.90;;;;;;5050301;28;20123;-23
2023/03/24 10:18:00;;;;;;;7.65;5.00;;;19.00;63.90;;;;;;5055669;28;20115;-23
2023/03/24 10:20:47;;;;;;;8.35;5.03;;;18.90;63.90;;;;;;5055348;28;20126;-23
2023/03/24 10:23:50;;;;;;;8.57;4.70;;;18.90;63.90;;;;;;5055104;28;20103;-24
2023/03/24 10:26:36;;;;;;;7.63;5.30;;;19.00;63.90;;;;;;5055573;28;20025;-22
2023/03/24 10:29:16;;;;;;;7.45;4.82;;;19.00;63.90;;;;;;5055226;28;20029;-23
2023/03/24 10:31:46;;;;;;;9.05;5.07;;;19.00;63.80;;;;;;5055086;28;20060;-23
2023/03/24 10:34:12;;;;;;;8.20;5.15;;;19.00;63.90;;;;;;5053807;28;20021;-23
2023/03/24 10:36:40;;;;;;;6.97;4.75;;;19.00;63.80;;;;;;5055474;28;20021;-25
2023/03/24 10:39:15;;;;;;;8.48;4.72;;;19.00;63.80;;;;;;5054910;28;20033;-24
2023/03/24 10:41:42;;;;;;;8.18;5.28;;;19.00;63.80;;;;;;5054914;28;20380;-24
2023/03/24 10:44:11;;;;;;;7.97;5.32;;;19.00;63.80;;;;;;5055480;28;20480;-25
2023/03/24 10:46:48;;;;;;;9.20;5.18;;;19.00;63.80;;;;;;5054876;28;20029;-25
2023/03/24 10:49:18;;;;;;;8.77;5.25;;;19.00;63.90;;;;;;5055103;28;20381;-23
2023/03/24 10:52:01;;;;;;;8.88;5.07;;;19.00;63.90;;;;;;5054871;28;20115;-23
2023/03/24 10:54:29;;;;;;;7.38;4.90;;;19.00;63.90;;;;;;5054279;28;20473;-23
2023/03/24 10:56:59;;;;;;;8.68;5.43;;;19.00;63.90;;;;;;5054911;28;20028;-23
2023/03/24 10:59:38;;;;;;;9.20;6.10;;;19.00;63.90;;;;;;5054591;28;20396;-22
2023/03/24 11:02:10;;;;;;;8.50;4.72;;;19.00;63.90;;;;;;5054302;28;20033;-25
2023/03/24 11:04:38;;;;;;;7.90;4.78;;;19.00;63.90;;;;;;5054278;28;20396;-23
2023/03/24 11:07:13;;;;;;;9.85;6.20;;;19.00;64.00;;;;;;5054310;28;20053;-24
2023/03/24 11:09:42;;;;;;;7.15;5.30;;;19.00;64.00;;;;;;5054495;28;20480;-24
2023/03/24 11:12:25;;;;;;;9.32;5.30;;;19.10;64.00;;;;;;5054372;28;20037;-24
2023/03/24 11:14:59;;;;;;;10.18;5.65;;;19.10;64.10;;;;;;5054329;28;20052;-24
2023/03/24 11:17:26;;;;;;;10.57;5.40;;;19.10;64.10;;;;;;5054664;28;20074;-24
2023/03/24 11:19:54;;;;;;;9.23;5.80;;;19.10;64.10;;;;;;5053830;28;20025;-22
2023/03/24 11:22:20;;;;;;;11.95;8.35;;;19.10;64.10;;;;;;5054043;28;20035;-24
2023/03/24 11:24:54;;;;;;;13.60;8.88;;;19.20;64.10;;;;;;5054538;28;20024;-24
2023/03/24 11:27:20;;;;;;;13.73;8.55;;;19.20;64.00;;;;;;5054421;28;20057;-23
2023/03/24 11:29:55;;;;;;;13.02;8.23;;;19.20;63.90;;;;;;5053808;28;20031;-24
2023/03/24 11:32:28;;;;;;;13.98;8.52;;;19.30;63.90;;;;;;5054356;28;20048;-24
2023/03/24 11:35:16;;;;;;;14.73;8.88;;;19.30;63.90;;;;;;5053076;28;20440;-22
2023/03/24 11:37:45;;;;;;;12.32;7.35;;;19.30;63.80;;;;;;5054118;28;20031;-25
2023/03/24 11:40:21;;;;;;;12.23;7.30;;;19.30;63.70;;;;;;5053805;28;20542;-23
2023/03/24 11:42:59;;;;;;;10.45;7.50;;;19.30;63.70;;;;;;5053866;28;20025;-23
2023/03/24 11:45:43;;;;;;;14.48;7.93;;;19.40;63.70;;;;;;5054093;28;20048;-23
2023/03/24 11:48:37;;;;;;;10.30;6.32;;;19.40;63.50;;;;;;5052305;28;20031;-23
2023/03/24 11:51:04;;;;;;;12.45;8.73;;;19.40;63.50;;;;;;5054116;28;20112;-24
2023/03/24 11:53:50;;;;;;;9.02;6.20;;;19.40;63.50;;;;;;5053784;28;20029;-22
2023/03/24 11:56:25;;;;;;;9.50;6.47;;;19.40;63.40;;;;;;5053612;28;20540;-22
2023/03/24 11:59:15;;;;;;;9.35;6.63;;;19.40;63.40;;;;;;5053562;28;20476;-22
2023/03/24 12:01:55;;;;;;;9.57;6.07;;;19.40;63.30;;;;;;5053678;28;20057;-22
2023/03/24 12:04:57;;;;;;;9.93;5.68;;;19.40;63.40;;;;;;5053403;28;20041;-22
2023/03/24 12:07:32;;;;;;;10.40;5.72;;;19.40;63.50;;;;;;5052413;28;20053;-22
2023/03/24 12:10:22;;;;;;;9.38;6.72;;;19.40;63.40;;;;;;5053252;28;20484;-23
2023/03/24 12:13:17;;;;;;;9.45;5.68;;;19.40;63.30;;;;;;5053595;28;20083;-22
2023/03/24 12:16:07;;;;;;;9.02;4.97;;;19.40;63.40;;;;;;5043942;28;20031;-24
2023/03/24 12:19:09;;;;;;;15.05;8.35;;;19.40;63.40;;;;;;5053500;28;20025;-22
2023/03/24 12:21:56;;;;;;;10.63;6.68;;;19.40;63.10;;;;;;5053154;28;20025;-24
2023/03/24 12:24:43;;;;;;;10.13;5.60;;;19.40;63.20;;;;;;5053461;28;20441;-24
2023/03/24 12:27:30;;;;;;;9.00;5.07;;;19.40;63.30;;;;;;5053246;28;20035;-23
2023/03/24 12:30:05;;;;;;;7.60;5.15;;;19.40;63.40;;;;;;5053190;28;20068;-24
2023/03/24 12:32:41;;;;;;;9.70;5.78;;;19.40;63.40;;;;;;5053431;28;20032;-24
2023/03/24 12:35:37;;;;;;;10.70;5.47;;;19.40;63.40;;;;;;5052975;28;20435;-24
2023/03/24 12:38:33;;;;;;;11.90;5.35;;;19.40;63.40;;;;;;5052546;28;20033;-24
2023/03/24 12:41:31;;;;;;;10.85;6.00;;;19.40;63.50;;;;;;5052900;28;20480;-24
2023/03/24 12:44:24;;;;;;;9.57;6.28;;;19.40;63.40;;;;;;5052543;28;20044;-23
2023/03/24 12:47:14;;;;;;;10.02;6.63;;;19.40;63.20;;;;;;5053309;28;20043;-24
2023/03/24 12:50:11;;;;;;;10.30;5.82;;;19.40;63.20;;;;;;5052761;28;20035;-24
2023/03/24 12:53:15;;;;;;;9.95;5.88;;;19.40;63.10;;;;;;5052914;28;20468;-23
2023/03/24 12:55:53;;;;;;;8.00;5.40;;;19.40;63.20;;;;;;5053053;28;20032;-24
2023/03/24 12:58:55;;;;;;;8.77;5.53;;;19.40;63.20;;;;;;5053096;28;20036;-24
2023/03/24 13:01:33;;;;;;;9.43;5.55;;;19.40;63.30;;;;;;5011077;28;20464;-23
2023/03/24 13:04:19;;;;;;;10.68;5.97;;;19.40;63.30;;;;;;5010950;28;20041;-21
2023/03/24 13:06:56;;;;;;;10.60;6.13;;;19.40;63.30;;;;;;5010845;28;20077;-22
2023/03/24 13:09:47;;;;;;;10.30;5.68;;;19.40;63.30;;;;;;5011001;28;20057;-23
2023/03/24 13:12:42;;;;;;;11.35;5.30;;;19.40;63.40;;;;;;5011270;28;20092;-24
2023/03/24 13:15:35;;;;;;;11.15;5.65;;;19.40;63.40;;;;;;5011010;28;20052;-23
2023/03/24 13:18:10;;;;;;;9.48;5.65;;;19.40;63.40;;;;;;4995260;28;20091;-23
2023/03/24 13:20:59;;;;;;;9.77;5.35;;;19.40;63.40;;;;;;5014754;28;20034;-23